Time;durP1;ratioP1;P1;durP2;ratioP2;P2;SDS_P1;SDS_P2;PMS_P1;PMS_P2;Temp;Humidity;BMP_temperature;BMP_pressure;BME280_temperature;BME280_humidity;BME280_pressure;Samples;Min_cycle;Max_cycle;Signal;HPM_P1;HPM_P2
2023/05/14 00:01:12;;;;;;;4.60;2.83;;;;;;;;;;5016687;28;20860;-85
2023/05/14 00:03:39;;;;;;;4.57;2.90;;;;;;;;;;5034622;28;20459;-85
2023/05/14 00:06:06;;;;;;;4.30;2.60;;;;;;;;;;5033273;28;20416;-82
2023/05/14 00:08:32;;;;;;;5.27;2.70;;;;;;;;;;5016248;28;20517;-82
2023/05/14 00:10:58;;;;;;;3.80;3.13;;;;;;;;;;5016024;28;20909;-81
2023/05/14 00:13:24;;;;;;;3.47;2.80;;;;;;;;;;5033460;28;20424;-83
2023/05/14 00:15:50;;;;;;;3.83;2.70;;;;;;;;;;5034323;28;20407;-83
2023/05/14 00:18:16;;;;;;;5.60;3.80;;;;;;;;;;5034241;28;20473;-83
2023/05/14 00:20:42;;;;;;;5.00;3.33;;;;;;;;;;5033962;28;20174;-80
2023/05/14 00:23:08;;;;;;;5.03;3.47;;;;;;;;;;5034375;28;20420;-81
2023/05/14 00:25:33;;;;;;;4.00;2.90;;;;;;;;;;5034493;28;20164;-81
2023/05/14 00:27:59;;;;;;;3.60;3.30;;;;;;;;;;5034242;28;20841;-80
2023/05/14 00:30:25;;;;;;;4.00;3.00;;;;;;;;;;5016640;28;20920;-79
2023/05/14 00:32:51;;;;;;;3.67;3.07;;;;;;;;;;5034232;28;20431;-82
2023/05/14 00:35:19;;;;;;;4.70;3.00;;;;;;;;;;5033605;28;20743;-82
2023/05/14 00:37:45;;;;;;;5.27;2.97;;;;;;;;;;5032979;28;20425;-78
2023/05/14 00:40:11;;;;;;;6.00;3.60;;;;;;;;;;5034091;28;20412;-78
2023/05/14 00:42:38;;;;;;;5.67;3.10;;;;;;;;;;5033144;28;20185;-79
2023/05/14 00:45:05;;;;;;;4.73;3.73;;;;;;;;;;5033953;28;20429;-79
2023/05/14 00:47:33;;;;;;;5.20;2.83;;;;;;;;;;5033987;28;20556;-79
2023/05/14 00:49:59;;;;;;;4.77;3.10;;;;;;;;;;5033823;28;20469;-85
2023/05/14 00:52:25;;;;;;;2.70;2.40;;;;;;;;;;5033165;28;20495;-85
2023/05/14 00:54:51;;;;;;;3.70;2.37;;;;;;;;;;5033821;28;20403;-82
2023/05/14 00:57:17;;;;;;;4.57;3.37;;;;;;;;;;5033750;28;20466;-85
2023/05/14 00:59:43;;;;;;;2.47;2.20;;;;;;;;;;5033456;28;20496;-79
2023/05/14 01:02:10;;;;;;;4.40;2.47;;;;;;;;;;5033854;28;20497;-85
2023/05/14 01:04:36;;;;;;;4.63;3.43;;;;;;;;;;5033664;28;20424;-78
2023/05/14 01:07:14;;;;;;;3.80;2.50;;;;;;;;;;5032302;28;20901;-78
2023/05/14 01:09:43;;;;;;;3.80;3.03;;;;;;;;;;5037665;28;20768;-81
2023/05/14 01:12:09;;;;;;;2.57;2.10;;;;;;;;;;5025167;28;20442;-79
2023/05/14 01:14:54;;;;;;;2.90;2.53;;;;;;;;;;5043602;28;20451;-79
2023/05/14 01:17:21;;;;;;;4.40;2.77;;;;;;;;;;5038597;28;20947;-79
2023/05/14 01:19:48;;;;;;;3.57;2.10;;;;;;;;;;5043773;28;21028;-79
2023/05/14 01:22:14;;;;;;;4.50;3.00;;;;;;;;;;5038171;28;20407;-79
2023/05/14 01:24:40;;;;;;;4.83;2.50;;;;;;;;;;5049326;28;20418;-79
2023/05/14 01:27:26;;;;;;;4.23;3.83;;;;;;;;;;5053002;28;20469;-78
2023/05/14 01:30:10;;;;;;;3.60;2.70;;;;;;;;;;5053271;28;20403;-78
2023/05/14 01:32:36;;;;;;;5.00;2.87;;;;;;;;;;5053152;28;20452;-78
2023/05/14 01:35:02;;;;;;;4.30;2.50;;;;;;;;;;5052982;28;20405;-78
2023/05/14 01:37:29;;;;;;;4.13;3.23;;;;;;;;;;5052867;28;20803;-78
2023/05/14 01:39:56;;;;;;;4.33;3.00;;;;;;;;;;5035103;28;20415;-80
2023/05/14 01:42:22;;;;;;;4.03;3.30;;;;;;;;;;5052817;28;20418;-78
2023/05/14 01:44:48;;;;;;;7.00;3.60;;;;;;;;;;5035065;28;20428;-78
2023/05/14 01:47:14;;;;;;;4.93;3.30;;;;;;;;;;5052967;28;20539;-77
2023/05/14 01:49:40;;;;;;;4.20;3.10;;;;;;;;;;5052718;28;20460;-78
2023/05/14 01:52:07;;;;;;;4.23;3.13;;;;;;;;;;5006923;28;20784;-78
2023/05/14 01:54:33;;;;;;;5.10;3.47;;;;;;;;;;5035612;28;20180;-78
2023/05/14 01:56:59;;;;;;;3.67;2.93;;;;;;;;;;5052749;28;20411;-78
2023/05/14 01:59:25;;;;;;;4.20;2.90;;;;;;;;;;5052656;28;20779;-83
2023/05/14 02:01:51;;;;;;;4.67;3.57;;;;;;;;;;5052417;28;20420;-80
2023/05/14 02:04:17;;;;;;;5.13;4.10;;;;;;;;;;5051825;28;20418;-80
2023/05/14 02:06:43;;;;;;;4.50;3.60;;;;;;;;;;5052163;28;20422;-79
2023/05/14 02:09:09;;;;;;;4.43;3.83;;;;;;;;;;5052541;28;20475;-79
2023/05/14 02:11:37;;;;;;;4.93;4.40;;;;;;;;;;5052589;28;20407;-78
2023/05/14 02:14:03;;;;;;;4.20;3.03;;;;;;;;;;5052463;28;20827;-82
2023/05/14 02:16:29;;;;;;;5.00;3.00;;;;;;;;;;5052596;28;20411;-79
2023/05/14 02:18:55;;;;;;;3.67;2.90;;;;;;;;;;5034647;28;20434;-79
2023/05/14 02:21:21;;;;;;;4.87;4.10;;;;;;;;;;5052016;28;20422;-86
2023/05/14 02:23:48;;;;;;;3.80;3.40;;;;;;;;;;5052356;28;20582;-87
2023/05/14 02:26:14;;;;;;;5.47;3.97;;;;;;;;;;5052183;28;20418;-79
2023/05/14 02:28:40;;;;;;;2.60;2.40;;;;;;;;;;5052353;28;20474;-82
2023/05/14 02:31:06;;;;;;;6.30;3.80;;;;;;;;;;5052559;28;20422;-80
2023/05/14 02:33:34;;;;;;;4.30;3.57;;;;;;;;;;5052274;28;20410;-78
2023/05/14 02:36:00;;;;;;;4.57;3.90;;;;;;;;;;5051909;28;20171;-84
2023/05/14 02:38:26;;;;;;;3.73;3.30;;;;;;;;;;5052327;28;20417;-85
2023/05/14 02:40:52;;;;;;;4.53;3.70;;;;;;;;;;5052474;28;20906;-86
2023/05/14 02:43:21;;;;;;;4.77;3.10;;;;;;;;;;5034588;28;20938;-88
2023/05/14 02:45:46;;;;;;;6.10;4.37;;;;;;;;;;5052424;28;20821;-79
2023/05/14 02:48:13;;;;;;;4.70;4.13;;;;;;;;;;5034102;28;20568;-79
2023/05/14 02:50:38;;;;;;;4.83;3.40;;;;;;;;;;5051636;28;20817;-79
2023/05/14 02:53:04;;;;;;;6.53;4.30;;;;;;;;;;5052090;28;20420;-79
2023/05/14 02:55:30;;;;;;;3.87;3.47;;;;;;;;;;5052274;28;20176;-86
2023/05/14 02:57:56;;;;;;;5.93;4.47;;;;;;;;;;5052178;28;20482;-87
2023/05/14 03:00:22;;;;;;;5.93;3.70;;;;;;;;;;5051987;28;20423;-80
2023/05/14 03:02:48;;;;;;;4.27;3.60;;;;;;;;;;5052035;28;20631;-86
2023/05/14 03:05:14;;;;;;;5.40;4.50;;;;;;;;;;5051611;28;20423;-79
2023/05/14 03:07:40;;;;;;;8.83;4.37;;;;;;;;;;5051986;28;20467;-79
2023/05/14 03:10:06;;;;;;;5.20;3.57;;;;;;;;;;5051972;28;20444;-79
2023/05/14 03:12:35;;;;;;;6.93;3.30;;;;;;;;;;5051957;28;20549;-79
2023/05/14 03:15:01;;;;;;;4.10;3.70;;;;;;;;;;5051893;28;20448;-85
2023/05/14 03:17:27;;;;;;;5.93;3.90;;;;;;;;;;5053726;28;20917;-85
2023/05/14 03:19:53;;;;;;;4.87;3.80;;;;;;;;;;5047701;28;20518;-80
2023/05/14 03:22:19;;;;;;;5.80;3.00;;;;;;;;;;5035054;28;20452;-86
2023/05/14 03:24:45;;;;;;;4.57;3.10;;;;;;;;;;5051893;28;20423;-78
2023/05/14 03:27:10;;;;;;;5.53;3.57;;;;;;;;;;5055706;28;20407;-85
2023/05/14 03:29:36;;;;;;;4.00;3.40;;;;;;;;;;5054422;28;20414;-78
2023/05/14 03:32:02;;;;;;;5.60;4.67;;;;;;;;;;5055054;28;21088;-80
2023/05/14 03:34:28;;;;;;;5.57;3.73;;;;;;;;;;5055100;28;20430;-79
2023/05/14 03:36:54;;;;;;;4.20;3.47;;;;;;;;;;5055362;28;20441;-80
2023/05/14 03:39:20;;;;;;;7.77;3.63;;;;;;;;;;5055668;28;20464;-79
2023/05/14 03:41:47;;;;;;;5.53;3.77;;;;;;;;;;5055625;28;20630;-79
2023/05/14 03:44:13;;;;;;;5.00;4.50;;;;;;;;;;5055156;28;20896;-79
2023/05/14 03:46:39;;;;;;;5.23;3.53;;;;;;;;;;5037555;28;20430;-83
2023/05/14 03:49:05;;;;;;;4.40;3.47;;;;;;;;;;5055169;28;20473;-78
2023/05/14 03:51:31;;;;;;;5.37;3.87;;;;;;;;;;5055055;28;20432;-79
2023/05/14 03:53:57;;;;;;;5.73;4.27;;;;;;;;;;5055367;28;20428;-78
2023/05/14 03:56:23;;;;;;;6.73;4.67;;;;;;;;;;5055314;28;20419;-78
2023/05/14 03:58:49;;;;;;;3.83;3.53;;;;;;;;;;5045340;28;20459;-78
2023/05/14 04:01:15;;;;;;;4.23;3.83;;;;;;;;;;5042664;28;20409;-80
2023/05/14 04:03:41;;;;;;;6.40;4.78;;;;;;;;;;5043192;28;20887;-78
2023/05/14 04:06:07;;;;;;;6.43;3.57;;;;;;;;;;5043718;28;20183;-78
2023/05/14 04:08:33;;;;;;;4.93;4.10;;;;;;;;;;5042785;28;20559;-79
2023/05/14 04:10:59;;;;;;;5.67;3.50;;;;;;;;;;5044697;28;20404;-80
2023/05/14 04:13:25;;;;;;;5.10;3.73;;;;;;;;;;5043721;28;20480;-80
2023/05/14 04:15:51;;;;;;;5.07;4.00;;;;;;;;;;5042809;28;20404;-80
2023/05/14 04:18:17;;;;;;;5.00;3.60;;;;;;;;;;5044659;28;20174;-79
2023/05/14 04:20:43;;;;;;;5.07;3.50;;;;;;;;;;5042776;28;20927;-79
2023/05/14 04:23:09;;;;;;;6.33;3.43;;;;;;;;;;5043121;28;20657;-79
2023/05/14 04:25:35;;;;;;;4.93;4.23;;;;;;;;;;5042934;28;20441;-81
2023/05/14 04:28:01;;;;;;;7.57;4.10;;;;;;;;;;5041886;28;20510;-79
2023/05/14 04:30:27;;;;;;;3.30;3.00;;;;;;;;;;5043263;28;20422;-80
2023/05/14 04:32:53;;;;;;;4.30;3.90;;;;;;;;;;5044276;28;20831;-79
2023/05/14 04:35:20;;;;;;;5.50;5.00;;;;;;;;;;5042080;28;20451;-80
2023/05/14 04:37:46;;;;;;;4.53;3.70;;;;;;;;;;5043252;28;20541;-79
2023/05/14 04:40:12;;;;;;;5.13;4.50;;;;;;;;;;5044080;28;20459;-79
2023/05/14 04:42:38;;;;;;;4.53;3.57;;;;;;;;;;5042092;28;20409;-79
2023/05/14 04:45:05;;;;;;;5.13;4.50;;;;;;;;;;5025557;28;20409;-80
2023/05/14 04:47:31;;;;;;;4.93;4.37;;;;;;;;;;5043481;28;20461;-80
2023/05/14 04:49:56;;;;;;;6.80;4.53;;;;;;;;;;5041313;28;20459;-79
2023/05/14 04:52:23;;;;;;;7.30;4.60;;;;;;;;;;5043290;28;20906;-81
2023/05/14 04:54:49;;;;;;;5.03;3.83;;;;;;;;;;5043366;28;20183;-80
2023/05/14 04:57:14;;;;;;;8.50;4.60;;;;;;;;;;5041671;28;20472;-80
2023/05/14 04:59:40;;;;;;;3.90;3.50;;;;;;;;;;5043528;28;20446;-80
2023/05/14 05:02:06;;;;;;;4.77;4.27;;;;;;;;;;5041071;28;20430;-80
2023/05/14 05:04:32;;;;;;;6.10;4.30;;;;;;;;;;5043149;28;20413;-81
2023/05/14 05:06:58;;;;;;;5.00;4.20;;;;;;;;;;5041592;28;20420;-79
2023/05/14 05:09:24;;;;;;;6.07;4.90;;;;;;;;;;5042697;28;20478;-81
2023/05/14 05:11:50;;;;;;;5.17;4.57;;;;;;;;;;5043227;28;20418;-80
2023/05/14 05:14:16;;;;;;;6.53;4.23;;;;;;;;;;5041371;28;20466;-79
2023/05/14 05:16:43;;;;;;;5.80;3.63;;;;;;;;;;5035963;28;20442;-79
2023/05/14 05:19:09;;;;;;;5.40;3.23;;;;;;;;;;5053758;28;20404;-80
2023/05/14 05:21:38;;;;;;;4.77;3.80;;;;;;;;;;5053330;28;20935;-79
2023/05/14 05:24:04;;;;;;;5.13;3.50;;;;;;;;;;5053647;28;20393;-79
2023/05/14 05:26:30;;;;;;;4.60;3.50;;;;;;;;;;5035751;28;20432;-79
2023/05/14 05:28:56;;;;;;;3.53;2.50;;;;;;;;;;5053402;28;20473;-84
2023/05/14 05:31:22;;;;;;;3.97;3.57;;;;;;;;;;5053474;28;20500;-80
2023/05/14 05:33:48;;;;;;;4.47;3.67;;;;;;;;;;5053430;28;20416;-84
2023/05/14 05:36:14;;;;;;;5.13;4.20;;;;;;;;;;5053039;28;20543;-81
2023/05/14 05:38:40;;;;;;;3.73;3.30;;;;;;;;;;5053348;28;20510;-79
2023/05/14 05:41:06;;;;;;;3.40;2.77;;;;;;;;;;5053330;28;20177;-80
2023/05/14 05:43:33;;;;;;;3.97;3.07;;;;;;;;;;5053238;28;20412;-79
2023/05/14 05:45:59;;;;;;;5.43;3.17;;;;;;;;;;5053284;28;20760;-84
2023/05/14 05:48:25;;;;;;;3.90;2.83;;;;;;;;;;5053085;28;20639;-80
2023/05/14 05:50:51;;;;;;;5.00;2.97;;;;;;;;;;5052688;28;20482;-82
2023/05/14 05:53:17;;;;;;;3.87;3.10;;;;;;;;;;4994518;28;20190;-84
2023/05/14 05:55:43;;;;;;;3.00;2.70;;;;;;;;;;5033200;28;20400;-79
2023/05/14 05:58:09;;;;;;;4.60;3.43;;;;;;;;;;5033178;28;20418;-81
2023/05/14 06:00:35;;;;;;;8.80;5.40;;;;;;;;;;5033037;28;20490;-79
2023/05/14 06:03:01;;;;;;;4.60;2.83;;;;;;;;;;5033114;28;20547;-80
2023/05/14 06:05:27;;;;;;;5.20;3.43;;;;;;;;;;5032724;28;20486;-87
2023/05/14 06:07:56;;;;;;;5.10;3.30;;;;;;;;;;5015821;28;21032;-80
2023/05/14 06:10:22;;;;;;;3.70;3.10;;;;;;;;;;5033258;28;20177;-80
2023/05/14 06:12:48;;;;;;;3.20;2.70;;;;;;;;;;5032935;28;20925;-79
2023/05/14 06:15:14;;;;;;;3.90;3.50;;;;;;;;;;5032977;28;20903;-79
2023/05/14 06:17:40;;;;;;;3.73;2.90;;;;;;;;;;5032833;28;20972;-79
2023/05/14 06:20:09;;;;;;;4.80;3.37;;;;;;;;;;5032525;28;20258;-84
2023/05/14 06:22:35;;;;;;;2.30;2.10;;;;;;;;;;5032781;28;20457;-84
2023/05/14 06:25:01;;;;;;;3.43;2.90;;;;;;;;;;5032953;28;20772;-79
2023/05/14 06:27:27;;;;;;;3.23;2.50;;;;;;;;;;5032787;28;20464;-79
2023/05/14 06:29:53;;;;;;;3.27;2.30;;;;;;;;;;5032903;28;20423;-80
2023/05/14 06:32:19;;;;;;;5.10;3.50;;;;;;;;;;5032807;28;20512;-80
2023/05/14 06:34:44;;;;;;;2.50;2.30;;;;;;;;;;5032441;28;20177;-83
2023/05/14 06:37:11;;;;;;;3.23;2.80;;;;;;;;;;5032758;28;20411;-77
2023/05/14 06:39:37;;;;;;;2.90;2.50;;;;;;;;;;5032736;28;20493;-80
2023/05/14 06:42:03;;;;;;;3.50;2.30;;;;;;;;;;5015026;28;20460;-81
2023/05/14 06:44:29;;;;;;;4.70;3.17;;;;;;;;;;5032721;28;20420;-80
2023/05/14 06:46:55;;;;;;;4.00;2.93;;;;;;;;;;5032584;28;20446;-82
2023/05/14 06:49:21;;;;;;;3.10;2.80;;;;;;;;;;5014306;28;20482;-79
2023/05/14 06:51:47;;;;;;;3.90;2.80;;;;;;;;;;5034901;28;20413;-81
2023/05/14 06:54:41;;;;;;;3.00;2.63;;;;;;;;;;5036985;28;20685;-87
2023/05/14 06:57:08;;;;;;;3.50;2.80;;;;;;;;;;4985600;28;20190;-81
2023/05/14 06:59:34;;;;;;;4.17;3.17;;;;;;;;;;5036364;28;20517;-81
2023/05/14 07:02:01;;;;;;;2.33;2.13;;;;;;;;;;5036485;28;20178;-78
2023/05/14 07:04:27;;;;;;;3.20;2.57;;;;;;;;;;5036039;28;20428;-79
2023/05/14 07:06:52;;;;;;;2.80;2.53;;;;;;;;;;5036277;28;20409;-81
2023/05/14 07:09:18;;;;;;;4.70;2.83;;;;;;;;;;5036042;28;20472;-81
2023/05/14 07:11:44;;;;;;;3.40;2.63;;;;;;;;;;5036256;28;20173;-82
2023/05/14 07:14:10;;;;;;;2.73;2.27;;;;;;;;;;5036206;28;20447;-81
2023/05/14 07:16:36;;;;;;;2.90;2.70;;;;;;;;;;5036220;28;20237;-84
2023/05/14 07:19:02;;;;;;;2.37;2.17;;;;;;;;;;5036131;28;20175;-79
2023/05/14 07:21:28;;;;;;;3.63;2.50;;;;;;;;;;5040086;28;20424;-79
2023/05/14 07:23:54;;;;;;;2.93;2.13;;;;;;;;;;5045309;28;20182;-79
2023/05/14 07:26:22;;;;;;;3.33;2.93;;;;;;;;;;5044664;28;20508;-83
2023/05/14 07:28:48;;;;;;;2.30;2.10;;;;;;;;;;5025147;28;20476;-82
2023/05/14 07:31:14;;;;;;;2.70;2.40;;;;;;;;;;5049129;28;20412;-85
2023/05/14 07:33:40;;;;;;;2.30;2.10;;;;;;;;;;5038804;28;20424;-83
2023/05/14 07:36:06;;;;;;;2.60;2.30;;;;;;;;;;5055402;28;20181;-83
2023/05/14 07:38:32;;;;;;;2.20;2.00;;;;;;;;;;5055757;28;20549;-82
2023/05/14 07:40:58;;;;;;;2.87;2.27;;;;;;;;;;5055410;28;20412;-84
2023/05/14 07:43:25;;;;;;;3.23;2.20;;;;;;;;;;4995975;28;20439;-85
2023/05/14 07:45:51;;;;;;;2.20;2.00;;;;;;;;;;5035478;28;20496;-84
2023/05/14 07:48:17;;;;;;;3.03;2.83;;;;;;;;;;5035202;28;21037;-85
2023/05/14 07:50:47;;;;;;;3.07;2.30;;;;;;;;;;5034747;28;20607;-86
2023/05/14 07:53:14;;;;;;;2.70;2.50;;;;;;;;;;5035361;28;20178;-87
2023/05/14 07:55:41;;;;;;;2.23;1.70;;;;;;;;;;5035278;28;20405;-85
2023/05/14 07:58:06;;;;;;;2.03;1.87;;;;;;;;;;5035363;28;20428;-88
2023/05/14 08:00:33;;;;;;;2.33;1.93;;;;;;;;;;5035551;28;20856;-89
2023/05/14 08:02:58;;;;;;;2.30;2.10;;;;;;;;;;5034005;28;20205;-87
2023/05/14 08:05:25;;;;;;;3.70;2.30;;;;;;;;;;5034759;28;20413;-86
2023/05/14 08:07:51;;;;;;;2.60;2.10;;;;;;;;;;5017365;28;20252;-86
2023/05/14 08:10:17;;;;;;;2.33;2.10;;;;;;;;;;5017262;28;20409;-88
2023/05/14 08:12:43;;;;;;;1.43;1.30;;;;;;;;;;5017320;28;20636;-86
2023/05/14 08:15:09;;;;;;;2.37;1.80;;;;;;;;;;5035037;28;20175;-89
2023/05/14 08:17:35;;;;;;;2.00;1.70;;;;;;;;;;5034971;28;20173;-84
2023/05/14 08:20:01;;;;;;;3.03;1.50;;;;;;;;;;5034583;28;20504;-89
2023/05/14 08:22:28;;;;;;;2.90;1.40;;;;;;;;;;5017200;28;20174;-84
2023/05/14 08:24:53;;;;;;;2.33;2.13;;;;;;;;;;5034899;28;20774;-90
2023/05/14 08:27:20;;;;;;;1.87;1.50;;;;;;;;;;5017038;28;20414;-89
2023/05/14 08:29:46;;;;;;;2.23;2.03;;;;;;;;;;5017145;28;20185;-88
2023/05/14 08:32:12;;;;;;;2.50;1.83;;;;;;;;;;5039328;28;20433;-84
2023/05/14 08:34:38;;;;;;;2.10;1.83;;;;;;;;;;5047940;28;20182;-83
2023/05/14 08:37:04;;;;;;;4.53;1.73;;;;;;;;;;5054112;28;20416;-88
2023/05/14 08:39:30;;;;;;;2.00;1.80;;;;;;;;;;5036350;28;20188;-85
2023/05/14 08:41:57;;;;;;;1.70;1.53;;;;;;;;;;5054130;28;20524;-86
2023/05/14 08:44:27;;;;;;;2.80;2.00;;;;;;;;;;5054117;28;20230;-84
2023/05/14 08:46:53;;;;;;;3.00;2.10;;;;;;;;;;5096361;22;21022;-84
2023/05/14 08:49:33;;;;;;;2.60;1.93;;;;;;;;;;5015851;28;20508;-84
2023/05/14 08:51:59;;;;;;;2.30;2.10;;;;;;;;;;5015405;28;20531;-81
2023/05/14 08:54:27;;;;;;;3.83;2.47;;;;;;;;;;5013997;28;20791;-81
2023/05/14 08:56:53;;;;;;;2.30;1.90;;;;;;;;;;5013989;28;20410;-81
2023/05/14 08:59:19;;;;;;;3.07;2.00;;;;;;;;;;5013908;28;20920;-81
2023/05/14 09:01:51;;;;;;;1.87;1.70;;;;;;;;;;4989390;28;20439;-81
2023/05/14 09:04:19;;;;;;;2.30;1.97;;;;;;;;;;5033368;28;20774;-80
2023/05/14 09:06:48;;;;;;;3.20;1.70;;;;;;;;;;5033617;28;20500;-81
2023/05/14 09:09:14;;;;;;;2.63;1.87;;;;;;;;;;5015711;28;20837;-79
2023/05/14 09:11:41;;;;;;;1.90;1.50;;;;;;;;;;5033711;28;20405;-79
2023/05/14 09:14:07;;;;;;;2.10;1.63;;;;;;;;;;5033353;28;20420;-78
2023/05/14 09:16:33;;;;;;;2.10;1.80;;;;;;;;;;5033527;28;20767;-81
2023/05/14 09:18:59;;;;;;;2.20;1.77;;;;;;;;;;5015412;28;20185;-79
2023/05/14 09:21:25;;;;;;;1.83;1.30;;;;;;;;;;5032163;28;20906;-81
2023/05/14 09:23:54;;;;;;;2.30;1.40;;;;;;;;;;5013636;28;20414;-79
2023/05/14 09:26:23;;;;;;;3.87;2.60;;;;;;;;;;5013294;28;20453;-79
2023/05/14 09:28:49;;;;;;;2.10;1.60;;;;;;;;;;5013811;28;20523;-80
2023/05/14 09:31:14;;;;;;;2.43;2.17;;;;;;;;;;4995828;28;20426;-80
2023/05/14 09:33:40;;;;;;;2.20;1.50;;;;;;;;;;5013438;28;20452;-81
2023/05/14 09:36:07;;;;;;;1.93;1.60;;;;;;;;;;5021480;28;20187;-81
2023/05/14 09:38:33;;;;;;;1.93;1.60;;;;;;;;;;5021541;28;20499;-81
2023/05/14 09:41:00;;;;;;;1.63;1.53;;;;;;;;;;4997251;28;20418;-79
2023/05/14 09:43:26;;;;;;;1.27;1.17;;;;;;;;;;5013375;28;20991;-81
2023/05/14 09:45:52;;;;;;;1.80;1.70;;;;;;;;;;5013076;28;20402;-85
2023/05/14 09:48:18;;;;;;;2.40;2.20;;;;;;;;;;5013127;28;20468;-83
2023/05/14 09:50:45;;;;;;;3.40;1.70;;;;;;;;;;4995496;28;20432;-84
2023/05/14 09:53:11;;;;;;;1.70;1.53;;;;;;;;;;5013373;28;20417;-86
2023/05/14 09:55:37;;;;;;;3.73;2.03;;;;;;;;;;5028722;28;20421;-82
2023/05/14 09:58:03;;;;;;;1.60;1.33;;;;;;;;;;5032917;28;20471;-83
2023/05/14 10:00:31;;;;;;;1.90;1.70;;;;;;;;;;4969676;28;20955;-82
2023/05/14 10:02:57;;;;;;;3.10;1.70;;;;;;;;;;5030887;28;20895;-82
2023/05/14 10:05:23;;;;;;;2.70;1.63;;;;;;;;;;5032311;28;20768;-81
2023/05/14 10:07:51;;;;;;;2.00;1.50;;;;;;;;;;5032336;28;20539;-84
2023/05/14 10:10:18;;;;;;;5.67;2.00;;;;;;;;;;5032753;28;20774;-82
2023/05/14 10:13:05;;;;;;;2.97;1.40;;;;;;;;;;5032826;28;20454;-83
2023/05/14 10:15:37;;;;;;;2.53;1.70;;;;;;;;;;5032244;28;20465;-82
2023/05/14 10:18:09;;;;;;;3.03;1.77;;;;;;;;;;5032838;28;20516;-84
2023/05/14 10:20:36;;;;;;;1.40;1.30;;;;;;;;;;5032283;28;20419;-83
2023/05/14 10:23:02;;;;;;;2.40;1.70;;;;;;;;;;5032866;28;20444;-83
2023/05/14 10:25:29;;;;;;;1.97;1.77;;;;;;;;;;5014343;28;20931;-84
2023/05/14 10:27:55;;;;;;;1.60;1.47;;;;;;;;;;5032714;28;20202;-84
2023/05/14 10:30:22;;;;;;;1.47;1.37;;;;;;;;;;5015001;28;20429;-82
2023/05/14 10:32:48;;;;;;;2.83;1.83;;;;;;;;;;5032730;28;20453;-86
2023/05/14 10:35:19;;;;;;;3.57;1.47;;;;;;;;;;5032586;28;20449;-84
2023/05/14 10:37:45;;;;;;;3.20;1.67;;;;;;;;;;5032753;28;20170;-84
2023/05/14 10:40:12;;;;;;;4.03;1.87;;;;;;;;;;5014968;28;20425;-83
2023/05/14 10:42:39;;;;;;;5.30;2.17;;;;;;;;;;5032561;28;20417;-85
2023/05/14 10:45:07;;;;;;;2.53;2.33;;;;;;;;;;5032323;28;20512;-81
2023/05/14 10:47:33;;;;;;;3.33;2.07;;;;;;;;;;5032185;28;20468;-81
2023/05/14 10:50:00;;;;;;;6.13;3.10;;;;;;;;;;5032281;28;20409;-84
2023/05/14 10:52:26;;;;;;;2.63;2.40;;;;;;;;;;5028868;28;20781;-80
2023/05/14 10:54:53;;;;;;;3.40;2.70;;;;;;;;;;5021481;28;20425;-80
2023/05/14 10:57:19;;;;;;;3.20;2.67;;;;;;;;;;5021958;28;20168;-82
2023/05/14 10:59:51;;;;;;;2.47;1.90;;;;;;;;;;5020438;28;20425;-85
2023/05/14 11:02:22;;;;;;;1.80;1.70;;;;;;;;;;5020819;28;20401;-81
2023/05/14 11:05:05;;;;;;;2.60;2.00;;;;;;;;;;5025956;28;20782;-85
2023/05/14 11:07:32;;;;;;;3.43;2.30;;;;;;;;;;5025707;28;20425;-81
2023/05/14 11:10:05;;;;;;;1.90;1.40;;;;;;;;;;5021018;28;20448;-81
2023/05/14 11:12:31;;;;;;;2.20;2.00;;;;;;;;;;5022167;28;20552;-82
2023/05/14 11:14:58;;;;;;;4.43;2.07;;;;;;;;;;5021117;28;20418;-82
2023/05/14 11:17:25;;;;;;;3.67;2.13;;;;;;;;;;5002236;28;21029;-84
2023/05/14 11:19:51;;;;;;;2.57;1.70;;;;;;;;;;5003175;28;20791;-81
2023/05/14 11:22:17;;;;;;;3.20;2.00;;;;;;;;;;5012578;28;20410;-82
2023/05/14 11:24:43;;;;;;;1.67;1.57;;;;;;;;;;5012685;28;20990;-82
2023/05/14 11:27:10;;;;;;;2.10;1.70;;;;;;;;;;5012480;28;20207;-82
2023/05/14 11:29:42;;;;;;;3.37;2.03;;;;;;;;;;5012398;28;20477;-82
2023/05/14 11:32:08;;;;;;;3.30;2.33;;;;;;;;;;5012560;28;20414;-82
2023/05/14 11:34:35;;;;;;;1.90;1.77;;;;;;;;;;5012014;28;20414;-83
2023/05/14 11:37:05;;;;;;;2.00;1.73;;;;;;;;;;5013728;28;20406;-83
2023/05/14 11:39:40;;;;;;;2.50;1.57;;;;;;;;;;5027834;28;20451;-82
2023/05/14 11:42:15;;;;;;;2.03;1.87;;;;;;;;;;5028486;28;20404;-82
2023/05/14 11:44:43;;;;;;;2.10;1.60;;;;;;;;;;5026221;28;20406;-82
2023/05/14 11:47:09;;;;;;;2.30;1.83;;;;;;;;;;5024160;28;20528;-83
2023/05/14 11:49:36;;;;;;;2.10;1.50;;;;;;;;;;5024692;28;20460;-83
2023/05/14 11:52:03;;;;;;;3.20;2.13;;;;;;;;;;5025907;28;20174;-85
2023/05/14 11:54:30;;;;;;;2.47;2.23;;;;;;;;;;5023975;28;20409;-83
2023/05/14 11:56:56;;;;;;;4.60;4.17;;;;;;;;;;5025779;28;20493;-84
2023/05/14 11:59:28;;;;;;;2.80;2.60;;;;;;;;;;5024380;28;20909;-83
2023/05/14 12:01:55;;;;;;;2.03;1.93;;;;;;;;;;5024593;28;20406;-82
2023/05/14 12:04:21;;;;;;;2.03;1.73;;;;;;;;;;5024050;28;20491;-84
2023/05/14 12:06:53;;;;;;;2.10;1.43;;;;;;;;;;5025872;28;20467;-84
2023/05/14 12:09:20;;;;;;;2.63;1.90;;;;;;;;;;5024698;28;20469;-85
2023/05/14 12:11:46;;;;;;;2.33;1.90;;;;;;;;;;5023737;28;20501;-84
2023/05/14 12:14:16;;;;;;;2.23;2.10;;;;;;;;;;5025417;28;20417;-85
2023/05/14 12:16:43;;;;;;;3.10;2.10;;;;;;;;;;5007383;28;20845;-85
2023/05/14 12:19:12;;;;;;;4.43;2.20;;;;;;;;;;5022940;28;20904;-84
2023/05/14 12:21:39;;;;;;;3.70;2.30;;;;;;;;;;5030487;28;20779;-84
2023/05/14 12:24:05;;;;;;;2.40;2.20;;;;;;;;;;5022825;28;20785;-84
2023/05/14 12:26:34;;;;;;;2.47;1.63;;;;;;;;;;5014818;28;20406;-83
2023/05/14 12:29:01;;;;;;;2.60;1.43;;;;;;;;;;5014715;28;20470;-82
2023/05/14 12:31:30;;;;;;;3.97;1.63;;;;;;;;;;5014769;28;20501;-84
2023/05/14 12:33:56;;;;;;;2.40;1.90;;;;;;;;;;5014489;28;20427;-83
2023/05/14 12:36:22;;;;;;;1.80;1.13;;;;;;;;;;5014792;28;21016;-84
2023/05/14 12:38:49;;;;;;;1.60;1.50;;;;;;;;;;5014741;28;20422;-84
2023/05/14 12:41:15;;;;;;;2.77;1.87;;;;;;;;;;4997095;28;20453;-83
2023/05/14 12:43:44;;;;;;;2.77;1.47;;;;;;;;;;5014705;28;20962;-85
2023/05/14 12:46:10;;;;;;;3.27;2.47;;;;;;;;;;5014511;28;20449;-84
2023/05/14 12:48:36;;;;;;;1.83;1.43;;;;;;;;;;5013545;28;20470;-84
2023/05/14 12:51:02;;;;;;;2.40;2.20;;;;;;;;;;4996973;28;20418;-85
2023/05/14 12:53:28;;;;;;;2.33;2.07;;;;;;;;;;4997158;28;20194;-83
2023/05/14 12:55:54;;;;;;;1.80;1.63;;;;;;;;;;5014314;28;20194;-84
2023/05/14 12:58:20;;;;;;;3.27;1.70;;;;;;;;;;5014345;28;20171;-89
2023/05/14 13:00:46;;;;;;;1.93;1.60;;;;;;;;;;4996737;28;20492;-87
2023/05/14 13:03:12;;;;;;;2.00;1.47;;;;;;;;;;5014043;28;20241;-86
2023/05/14 13:05:37;;;;;;;2.07;1.60;;;;;;;;;;5014234;28;20225;-84
2023/05/14 13:08:03;;;;;;;2.70;2.07;;;;;;;;;;4996481;28;20685;-87
2023/05/14 13:10:29;;;;;;;2.70;1.90;;;;;;;;;;5014346;28;20205;-87
2023/05/14 13:12:55;;;;;;;4.10;2.17;;;;;;;;;;5014034;28;20418;-86
2023/05/14 13:15:22;;;;;;;2.73;1.37;;;;;;;;;;5014196;28;20403;-84
2023/05/14 13:17:48;;;;;;;2.67;2.47;;;;;;;;;;5014163;28;20582;-84
2023/05/14 13:20:14;;;;;;;2.10;1.90;;;;;;;;;;5013710;28;20997;-84
2023/05/14 13:22:43;;;;;;;2.27;2.03;;;;;;;;;;5013924;28;20461;-84
2023/05/14 13:25:09;;;;;;;1.77;1.67;;;;;;;;;;5012726;28;20425;-84
2023/05/14 13:27:35;;;;;;;3.30;2.57;;;;;;;;;;5013513;28;20413;-82
2023/05/14 13:30:01;;;;;;;1.80;1.70;;;;;;;;;;5013445;28;20471;-83
2023/05/14 13:32:27;;;;;;;2.10;1.90;;;;;;;;;;5013427;28;20417;-82
2023/05/14 13:34:53;;;;;;;3.33;1.53;;;;;;;;;;5013133;28;20916;-83
2023/05/14 13:37:19;;;;;;;2.60;1.97;;;;;;;;;;5013425;28;20171;-83
2023/05/14 13:39:45;;;;;;;2.70;1.40;;;;;;;;;;5013375;28;20986;-84
2023/05/14 13:42:11;;;;;;;2.10;1.60;;;;;;;;;;5013322;28;20190;-83
2023/05/14 13:44:37;;;;;;;2.10;1.80;;;;;;;;;;5013231;28;20480;-83
2023/05/14 13:47:03;;;;;;;2.27;1.67;;;;;;;;;;5013167;28;20693;-83
2023/05/14 13:49:29;;;;;;;2.00;1.70;;;;;;;;;;4995167;28;20221;-84
2023/05/14 13:51:55;;;;;;;2.90;2.07;;;;;;;;;;5013206;28;20414;-83
2023/05/14 13:54:21;;;;;;;2.90;1.93;;;;;;;;;;5013119;28;20179;-84
2023/05/14 13:56:47;;;;;;;1.47;1.37;;;;;;;;;;4995509;28;20179;-83
2023/05/14 13:59:14;;;;;;;2.70;1.90;;;;;;;;;;5013064;28;20480;-84
2023/05/14 14:01:42;;;;;;;2.07;1.87;;;;;;;;;;4994512;28;20206;-84
2023/05/14 14:04:07;;;;;;;1.80;1.70;;;;;;;;;;5011961;28;20422;-84
2023/05/14 14:06:33;;;;;;;2.70;1.70;;;;;;;;;;4995424;28;20789;-81
2023/05/14 14:08:59;;;;;;;2.00;1.80;;;;;;;;;;5011489;28;21020;-83
2023/05/14 14:11:25;;;;;;;2.50;1.80;;;;;;;;;;5012286;28;20171;-83
2023/05/14 14:13:51;;;;;;;2.80;2.17;;;;;;;;;;5011565;28;20472;-82
2023/05/14 14:16:17;;;;;;;3.47;2.10;;;;;;;;;;5013264;28;20414;-82
2023/05/14 14:18:43;;;;;;;2.30;2.10;;;;;;;;;;4995254;28;20641;-84
2023/05/14 14:21:09;;;;;;;2.20;1.83;;;;;;;;;;5013178;28;20222;-82
2023/05/14 14:23:35;;;;;;;6.00;2.37;;;;;;;;;;5013189;28;20409;-83
2023/05/14 14:26:01;;;;;;;2.90;1.73;;;;;;;;;;4995579;28;20501;-83
2023/05/14 14:28:27;;;;;;;1.20;1.10;;;;;;;;;;5013086;28;20458;-83
2023/05/14 14:30:53;;;;;;;2.80;1.70;;;;;;;;;;4995049;28;20426;-83
2023/05/14 14:33:19;;;;;;;2.33;2.13;;;;;;;;;;5009769;28;20178;-83
2023/05/14 14:35:45;;;;;;;3.90;1.90;;;;;;;;;;5032364;28;20587;-83
2023/05/14 14:38:11;;;;;;;2.40;1.90;;;;;;;;;;5002020;28;20418;-86
2023/05/14 14:40:37;;;;;;;3.47;1.97;;;;;;;;;;5012607;28;20468;-83